Time;durP1;ratioP1;P1;durP2;ratioP2;P2;SDS_P1;SDS_P2;PMS_P1;PMS_P2;Temp;Humidity;BMP_temperature;BMP_pressure;BME280_temperature;BME280_humidity;BME280_pressure;Samples;Min_cycle;Max_cycle;Signal;HPM_P1;HPM_P2
2024/03/12 00:00:28;;;;;;;12.02;4.43;;;;;;;7.46;100.00;99975.44;5128795;27;20027;-68
2024/03/12 00:02:55;;;;;;;9.73;3.63;;;;;;;7.42;100.00;99979.25;5132659;27;20096;-68
2024/03/12 00:05:20;;;;;;;16.83;5.15;;;;;;;7.41;100.00;99975.03;5125353;27;20035;-68
2024/03/12 00:07:46;;;;;;;6.93;3.67;;;;;;;7.40;100.00;99982.94;5131082;27;20065;-68
2024/03/12 00:10:19;;;;;;;11.73;4.22;;;;;;;7.38;100.00;99977.91;5110422;27;20119;-68
2024/03/12 00:12:49;;;;;;;11.32;3.83;;;;;;;7.39;100.00;99978.72;5134701;27;20042;-68
2024/03/12 00:15:19;;;;;;;8.98;3.30;;;;;;;7.40;100.00;99983.75;5129977;27;20038;-68
2024/03/12 00:17:46;;;;;;;9.07;3.70;;;;;;;7.39;100.00;99979.53;5129459;27;20494;-68
2024/03/12 00:20:24;;;;;;;5.90;2.83;;;;;;;7.35;100.00;99974.75;5129869;27;20042;-68
2024/03/12 00:22:50;;;;;;;7.35;2.95;;;;;;;7.33;100.00;99972.28;5132633;27;20489;-68
2024/03/12 00:25:20;;;;;;;7.22;2.78;;;;;;;7.30;100.00;99975.16;5110344;27;20122;-68
2024/03/12 00:27:50;;;;;;;6.57;1.60;;;;;;;7.27;100.00;99978.03;5132262;27;20031;-68
2024/03/12 00:30:18;;;;;;;5.22;2.17;;;;;;;7.25;100.00;99985.94;5131308;27;20492;-68
2024/03/12 00:32:44;;;;;;;5.45;1.27;;;;;;;7.24;100.00;99981.69;5132717;27;20363;-68
2024/03/12 00:35:13;;;;;;;6.18;1.40;;;;;;;7.23;100.00;99977.47;5131575;27;20026;-68
2024/03/12 00:37:39;;;;;;;4.10;1.85;;;;;;;7.22;100.00;99975.00;5128274;27;20055;-68
2024/03/12 00:40:11;;;;;;;4.75;1.65;;;;;;;7.23;100.00;99976.66;5130127;27;20038;-67
2024/03/12 00:42:39;;;;;;;7.72;1.65;;;;;;;7.24;100.00;99973.09;5132483;27;20427;-68
2024/03/12 00:45:11;;;;;;;5.25;1.55;;;;;;;7.21;100.00;99969.00;5130797;27;20488;-68
2024/03/12 00:47:42;;;;;;;3.65;1.60;;;;;;;7.24;100.00;99973.09;5130222;27;20055;-68
2024/03/12 00:50:11;;;;;;;5.32;2.13;;;;;;;7.23;100.00;99972.28;5130730;27;20114;-68
2024/03/12 00:52:41;;;;;;;3.97;2.03;;;;;;;7.22;100.00;99964.66;5129207;27;20035;-68
2024/03/12 00:55:10;;;;;;;6.93;2.05;;;;;;;7.20;100.00;99961.38;5131444;27;20035;-68
2024/03/12 00:57:38;;;;;;;4.50;2.10;;;;;;;7.20;100.00;99961.38;5131670;27;20081;-68
2024/03/12 01:02:53;;;;;;;7.00;2.05;;;;;;;7.15;100.00;99961.78;5124454;27;20078;-68
2024/03/12 01:05:21;;;;;;;5.00;1.60;;;;;;;7.14;100.00;99961.91;5128703;27;20119;-68
2024/03/12 01:07:52;;;;;;;9.50;3.13;;;;;;;7.12;100.00;99961.22;5126925;27;20043;-68
2024/03/12 01:10:20;;;;;;;8.73;2.40;;;;;;;7.10;100.00;99960.53;5128308;27;20518;-68
2024/03/12 01:12:47;;;;;;;4.72;2.35;;;;;;;7.12;100.00;99962.03;5128441;27;20043;-68
2024/03/12 01:15:13;;;;;;;7.90;2.90;;;;;;;7.19;100.00;99960.56;5128316;27;20079;-68
2024/03/12 01:17:39;;;;;;;11.60;2.72;;;;;;;7.17;100.00;99961.63;5126287;27;20067;-68
2024/03/12 01:20:09;;;;;;;6.80;2.50;;;;;;;7.13;100.00;99962.84;5125550;27;20027;-67
2024/03/12 01:22:39;;;;;;;8.52;2.80;;;;;;;7.11;100.00;99963.00;5129694;27;20027;-68
2024/03/12 01:25:07;;;;;;;10.10;2.78;;;;;;;7.08;100.00;99962.47;5125522;27;20102;-68
2024/03/12 01:27:34;;;;;;;12.65;2.60;;;;;;;7.06;100.00;99965.19;5128076;27;20498;-68
2024/03/12 01:30:07;;;;;;;5.03;2.20;;;;;;;7.11;100.00;99967.34;5130655;27;20039;-68
2024/03/12 01:32:41;;;;;;;6.53;2.20;;;;;;;7.12;100.00;99969.00;5130292;27;20517;-68
2024/03/12 01:35:08;;;;;;;6.82;2.58;;;;;;;7.13;100.00;99965.44;5130077;27;20035;-67
2024/03/12 01:37:37;;;;;;;9.80;2.42;;;;;;;7.18;100.00;99968.47;5128218;27;20042;-68
2024/03/12 01:40:19;;;;;;;6.57;2.47;;;;;;;7.16;100.00;99960.81;5128033;27;20035;-67
2024/03/12 01:42:51;;;;;;;7.43;2.50;;;;;;;7.11;100.00;99969.94;5126504;27;20042;-67
2024/03/12 01:45:22;;;;;;;10.07;3.88;;;;;;;7.16;100.00;99971.19;5128119;27;20482;-67
2024/03/12 01:47:49;;;;;;;11.13;3.08;;;;;;;7.16;100.00;99968.59;5125221;27;20095;-67
2024/03/12 01:50:17;;;;;;;7.95;3.30;;;;;;;7.12;100.00;99972.41;5123528;27;20089;-67
2024/03/12 01:52:43;;;;;;;7.85;3.28;;;;;;;7.10;100.00;99968.31;5129740;27;20086;-67
2024/03/12 01:55:09;;;;;;;8.35;3.17;;;;;;;7.09;100.00;99970.06;5123584;27;20023;-67
2024/03/12 01:57:35;;;;;;;9.32;2.95;;;;;;;7.08;100.00;99972.84;5127010;27;20034;-67
2024/03/12 02:00:00;;;;;;;5.25;2.55;;;;;;;7.07;100.00;99966.84;5123480;27;21844;-68
2024/03/12 02:02:26;;;;;;;15.48;2.70;;;;;;;7.07;100.00;99959.06;5123652;27;20467;-68
2024/03/12 02:04:51;;;;;;;5.47;2.45;;;;;;;7.08;100.00;99962.47;5126913;27;20034;-69
2024/03/12 02:07:16;;;;;;;4.63;1.52;;;;;;;7.12;100.00;99967.22;5128399;27;20042;-68
2024/03/12 02:09:43;;;;;;;3.90;2.05;;;;;;;7.11;100.00;99967.34;5128810;27;20020;-68
2024/03/12 02:12:08;;;;;;;7.50;1.40;;;;;;;7.09;100.00;99969.28;5129916;27;20469;-67
2024/03/12 02:14:35;;;;;;;6.93;1.73;;;;;;;7.05;100.00;99967.91;5129439;27;20088;-67
2024/03/12 02:17:05;;;;;;;2.88;1.52;;;;;;;7.02;100.00;99965.59;5133749;27;20039;-68
2024/03/12 02:19:30;;;;;;;3.25;1.00;;;;;;;6.97;100.00;99964.22;5128009;27;20076;-67
2024/03/12 02:21:56;;;;;;;3.60;1.30;;;;;;;6.95;100.00;99968.72;5130878;27;20022;-67
2024/03/12 02:24:21;;;;;;;3.35;1.30;;;;;;;6.92;100.00;99963.81;5128819;27;20023;-67
2024/03/12 02:26:46;;;;;;;2.70;1.15;;;;;;;6.94;100.00;99967.06;5129741;27;20550;-67
2024/03/12 02:29:13;;;;;;;3.97;0.93;;;;;;;6.90;100.00;99965.69;5127917;27;20023;-68
2024/03/12 02:31:38;;;;;;;1.05;0.45;;;;;;;6.86;100.00;99963.50;5110713;27;20031;-68
2024/03/12 02:34:03;;;;;;;3.40;0.65;;;;;;;6.93;100.00;99957.66;5128957;27;20144;-68
2024/03/12 02:36:29;;;;;;;8.18;1.38;;;;;;;7.00;100.00;99957.97;5124258;27;20957;-68
2024/03/12 02:38:55;;;;;;;5.50;0.68;;;;;;;7.02;100.00;99963.00;5132084;27;20041;-68
2024/03/12 02:41:21;;;;;;;3.13;0.77;;;;;;;7.04;100.00;99958.50;5129254;27;20056;-67
2024/03/12 02:43:48;;;;;;;3.03;1.05;;;;;;;7.05;100.00;99962.75;5129836;27;20080;-67
2024/03/12 02:46:14;;;;;;;4.05;0.70;;;;;;;7.05;100.00;99957.56;5130221;27;20031;-67
2024/03/12 02:48:42;;;;;;;5.60;0.57;;;;;;;7.10;100.00;99956.16;5129846;27;20054;-68
2024/03/12 02:51:08;;;;;;;1.88;0.65;;;;;;;6.99;100.00;99954.53;5104749;27;20031;-68
2024/03/12 02:53:34;;;;;;;2.17;0.63;;;;;;;6.91;100.00;99959.56;5129252;27;20509;-68
2024/03/12 02:56:00;;;;;;;1.60;0.63;;;;;;;6.85;100.00;99962.69;5127640;27;20035;-68
2024/03/12 02:58:26;;;;;;;3.20;0.70;;;;;;;6.80;100.00;99959.69;5125913;27;20117;-68
2024/03/12 03:00:53;;;;;;;4.22;0.60;;;;;;;6.75;100.00;99961.84;5127418;27;20019;-68
2024/03/12 03:03:20;;;;;;;1.52;0.57;;;;;;;6.70;100.00;99952.81;5127717;27;20099;-67
2024/03/12 03:05:45;;;;;;;1.48;0.90;;;;;;;6.66;100.00;99952.28;5125780;27;20027;-68
2024/03/12 03:08:10;;;;;;;2.60;1.13;;;;;;;6.62;100.00;99949.13;5126019;27;20037;-68
2024/03/12 03:10:36;;;;;;;2.67;0.52;;;;;;;6.62;100.00;99958.66;5133476;27;20051;-68
2024/03/12 03:13:01;;;;;;;4.50;0.88;;;;;;;6.55;100.00;99954.97;5129341;27;20504;-68
2024/03/12 03:15:26;;;;;;;2.20;0.77;;;;;;;6.50;100.00;99951.97;5133436;27;20099;-68
2024/03/12 03:17:52;;;;;;;7.97;1.08;;;;;;;6.44;100.00;99955.91;5112182;27;20035;-68
2024/03/12 03:20:18;;;;;;;4.07;0.70;;;;;;;6.39;100.00;99957.22;5127494;27;20505;-68
2024/03/12 03:22:44;;;;;;;5.38;0.95;;;;;;;6.32;100.00;99960.34;5130981;27;20033;-68
2024/03/12 03:25:14;;;;;;;1.77;0.80;;;;;;;6.27;100.00;99957.31;5131296;27;20092;-68
2024/03/12 03:27:39;;;;;;;2.30;0.90;;;;;;;6.28;100.00;99958.13;5132045;27;20038;-67
2024/03/12 03:30:07;;;;;;;1.60;0.90;;;;;;;6.25;100.00;99963.56;5131507;27;20019;-68
2024/03/12 03:32:35;;;;;;;2.17;0.65;;;;;;;6.22;100.00;99958.66;5095160;28;20122;-68
2024/03/12 03:35:03;;;;;;;2.05;0.85;;;;;;;6.21;100.00;99962.19;5131775;27;20042;-68
2024/03/12 03:37:32;;;;;;;2.03;1.00;;;;;;;6.21;100.00;99960.41;5127782;27;20034;-68
2024/03/12 03:39:58;;;;;;;2.83;0.90;;;;;;;6.21;100.00;99949.25;5131360;27;20027;-68
2024/03/12 03:42:23;;;;;;;1.85;0.75;;;;;;;6.20;100.00;99956.19;5131443;27;20034;-68
2024/03/12 03:44:48;;;;;;;6.93;0.90;;;;;;;6.18;100.00;99962.44;5131907;27;20456;-68
2024/03/12 03:47:14;;;;;;;2.22;0.98;;;;;;;6.17;100.00;99953.84;5128380;27;20031;-68
2024/03/12 03:49:39;;;;;;;3.13;1.05;;;;;;;6.17;100.00;99959.03;5127596;27;20066;-67
2024/03/12 03:52:05;;;;;;;3.22;1.20;;;;;;;6.16;100.00;99964.31;5129788;27;20035;-67
2024/03/12 03:54:30;;;;;;;2.47;1.08;;;;;;;6.16;100.00;99972.09;5128851;27;20032;-68
2024/03/12 03:56:56;;;;;;;3.05;1.38;;;;;;;6.16;100.00;99962.56;5129923;27;20039;-68
2024/03/12 03:59:21;;;;;;;4.15;1.27;;;;;;;6.21;100.00;99964.75;5130724;27;20114;-68
2024/03/12 04:01:49;;;;;;;4.97;1.30;;;;;;;6.18;100.00;99968.44;5115795;27;20364;-68
2024/03/12 04:04:15;;;;;;;4.82;2.72;;;;;;;6.19;100.00;99972.66;5128982;27;20031;-68
2024/03/12 04:06:43;;;;;;;2.92;1.75;;;;;;;6.22;100.00;99974.16;5129153;27;20035;-68
2024/03/12 04:09:09;;;;;;;8.68;3.05;;;;;;;6.22;100.00;99969.00;5127639;27;20355;-68
2024/03/12 04:11:35;;;;;;;3.38;1.83;;;;;;;6.19;100.00;99975.25;5128845;27;20039;-68
2024/03/12 04:14:00;;;;;;;6.43;2.47;;;;;;;6.17;100.00;99982.31;5132476;27;20046;-68
2024/03/12 04:16:26;;;;;;;15.13;2.10;;;;;;;6.25;100.00;99985.06;5127311;27;20031;-68
2024/03/12 04:18:51;;;;;;;5.93;2.15;;;;;;;6.27;100.00;99990.13;5129982;27;20035;-68
2024/03/12 04:21:17;;;;;;;4.55;1.92;;;;;;;6.28;100.00;99978.81;5127318;27;20027;-68
2024/03/12 04:23:42;;;;;;;3.28;1.30;;;;;;;6.24;100.00;99991.19;5122114;27;20035;-68
2024/03/12 04:26:08;;;;;;;5.07;1.95;;;;;;;6.23;100.00;99991.31;5121169;27;20695;-67
2024/03/12 04:28:34;;;;;;;5.63;2.08;;;;;;;6.22;100.00;99997.44;5132110;27;20030;-68
2024/03/12 04:30:59;;;;;;;3.40;1.73;;;;;;;6.19;100.00;99993.34;5129064;27;20027;-68
2024/03/12 04:33:25;;;;;;;3.30;1.38;;;;;;;6.17;100.00;100005.59;5130266;27;20027;-68
2024/03/12 04:35:52;;;;;;;4.82;1.52;;;;;;;6.18;100.00;99996.06;5124107;27;20584;-68
2024/03/12 04:38:18;;;;;;;5.38;1.67;;;;;;;6.13;100.00;99996.47;5130519;27;20184;-68
2024/03/12 04:40:47;;;;;;;4.43;2.22;;;;;;;6.10;100.00;99999.31;5127185;27;20039;-68
2024/03/12 04:43:13;;;;;;;5.55;2.42;;;;;;;6.11;100.00;99998.38;5113480;27;20435;-68
2024/03/12 04:45:40;;;;;;;8.23;2.38;;;;;;;6.12;100.00;100000.00;5132641;27;20035;-68
2024/03/12 04:48:07;;;;;;;6.00;2.22;;;;;;;6.12;100.00;99999.19;5126895;27;20035;-68
2024/03/12 04:50:33;;;;;;;5.15;2.22;;;;;;;6.13;100.00;100006.00;5132189;27;20050;-68
2024/03/12 04:52:58;;;;;;;5.30;2.28;;;;;;;6.13;100.00;100006.81;5132214;27;20035;-68
2024/03/12 04:55:23;;;;;;;3.40;1.85;;;;;;;6.13;100.00;100006.81;5131892;27;20053;-68
2024/03/12 04:57:49;;;;;;;9.35;2.08;;;;;;;6.14;100.00;100005.06;5130866;27;20035;-68
2024/03/12 05:00:14;;;;;;;4.28;2.38;;;;;;;6.14;100.00;100016.22;5130878;27;20389;-68
2024/03/12 05:02:40;;;;;;;5.72;2.63;;;;;;;6.12;100.00;100015.53;5131570;27;20034;-68
2024/03/12 05:05:11;;;;;;;5.95;2.00;;;;;;;6.10;100.00;100022.59;5131106;27;20023;-68
2024/03/12 05:07:37;;;;;;;3.65;2.28;;;;;;;6.10;100.00;100021.78;5131911;27;20035;-68
2024/03/12 05:10:04;;;;;;;6.22;2.40;;;;;;;6.07;100.00;100017.66;5129958;27;20133;-68
2024/03/12 05:12:29;;;;;;;5.70;2.38;;;;;;;6.09;100.00;100023.53;5114095;27;20043;-68
2024/03/12 05:14:55;;;;;;;7.90;2.70;;;;;;;6.10;100.00;100032.13;5130571;27;20023;-68
2024/03/12 05:17:21;;;;;;;11.02;3.33;;;;;;;6.16;100.00;100031.56;5131213;27;20042;-68
2024/03/12 05:19:47;;;;;;;3.83;1.67;;;;;;;6.25;100.00;100030.81;5124705;27;20027;-68
2024/03/12 05:22:12;;;;;;;6.07;2.40;;;;;;;6.30;100.00;100034.66;5131407;27;20043;-68
2024/03/12 05:24:38;;;;;;;17.88;1.98;;;;;;;6.28;100.00;100036.56;5131495;27;20035;-68
2024/03/12 05:27:03;;;;;;;6.20;1.90;;;;;;;6.33;100.00;100034.41;5130800;27;20470;-68
2024/03/12 05:29:36;;;;;;;4.35;2.45;;;;;;;6.39;100.00;100034.84;5131970;27;20108;-68
2024/03/12 05:32:17;;;;;;;8.55;2.40;;;;;;;6.36;100.00;100038.53;5130829;27;20031;-68
2024/03/12 05:34:47;;;;;;;9.30;2.58;;;;;;;6.38;100.00;100041.78;5129461;27;20371;-68
2024/03/12 05:37:28;;;;;;;4.82;2.03;;;;;;;6.38;100.00;100044.38;5130341;27;20031;-68
2024/03/12 05:48:10;;;;;;;3.47;1.08;;;;;;;6.32;100.00;100047.47;5129345;27;20038;-68
2024/03/12 05:50:39;;;;;;;2.38;1.25;;;;;;;6.33;100.00;100047.34;5125753;27;20031;-68
2024/03/12 05:53:05;;;;;;;1.75;1.02;;;;;;;6.33;100.00;100060.28;5127607;27;20079;-68
2024/03/12 05:55:30;;;;;;;7.43;1.23;;;;;;;6.37;100.00;100049.69;5126741;27;20104;-68
2024/03/12 05:57:56;;;;;;;3.53;1.20;;;;;;;6.39;100.00;100055.56;5129929;27;20126;-68
2024/03/12 06:00:21;;;;;;;3.33;1.35;;;;;;;6.43;100.00;100064.72;5126563;27;20551;-68
2024/03/12 06:02:47;;;;;;;3.08;1.15;;;;;;;6.47;100.00;100063.50;5129131;27;20498;-68
2024/03/12 06:05:12;;;;;;;4.45;1.42;;;;;;;6.48;100.00;100060.78;5129194;27;20046;-68
2024/03/12 06:07:48;;;;;;;4.32;1.40;;;;;;;6.52;100.00;100066.53;5129164;27;20534;-68
2024/03/12 06:10:14;;;;;;;1.70;0.88;;;;;;;6.56;100.00;100070.50;5124295;27;20518;-68
2024/03/12 06:12:39;;;;;;;3.78;1.85;;;;;;;6.61;100.00;100073.53;5127308;27;20031;-68
2024/03/12 06:15:05;;;;;;;10.70;2.28;;;;;;;6.64;100.00;100070.66;5128969;27;20046;-68
2024/03/12 06:17:32;;;;;;;3.45;1.65;;;;;;;6.71;100.00;100073.56;5109206;27;20035;-68
2024/03/12 06:19:57;;;;;;;4.57;2.20;;;;;;;6.76;100.00;100074.00;5130080;27;20051;-68
2024/03/12 06:22:23;;;;;;;3.03;1.40;;;;;;;6.83;100.00;100088.06;5108223;27;20161;-68
2024/03/12 06:24:49;;;;;;;7.05;2.03;;;;;;;6.87;100.00;100085.09;5130691;27;20138;-68
2024/03/12 06:27:16;;;;;;;7.22;2.10;;;;;;;6.86;100.00;100087.81;5130037;27;20031;-68
2024/03/12 06:29:41;;;;;;;5.72;2.80;;;;;;;6.89;100.00;100101.31;5131606;27;20027;-68
2024/03/12 06:32:07;;;;;;;7.40;2.88;;;;;;;7.03;100.00;100101.94;5129098;27;21309;-68
2024/03/12 06:34:33;;;;;;;6.43;3.35;;;;;;;7.14;100.00;100104.41;5111227;27;20047;-68
2024/03/12 06:36:58;;;;;;;5.47;2.78;;;;;;;7.13;100.00;100105.34;5111579;28;20024;-68
2024/03/12 06:39:33;;;;;;;6.20;1.83;;;;;;;7.11;100.00;100110.66;5129748;27;20027;-68
2024/03/12 06:42:01;;;;;;;3.90;2.10;;;;;;;7.13;100.00;100115.72;5128773;27;20126;-68
2024/03/12 06:44:26;;;;;;;5.63;2.28;;;;;;;7.20;100.00;100109.06;5127515;27;20466;-68
2024/03/12 06:46:52;;;;;;;3.20;1.65;;;;;;;7.27;100.00;100112.75;5128668;27;20118;-68
2024/03/12 06:49:20;;;;;;;7.57;2.38;;;;;;;7.43;100.00;100120.03;5128265;27;20023;-68
2024/03/12 06:51:49;;;;;;;8.43;2.35;;;;;;;7.53;100.00;100123.50;5126858;27;20051;-68
2024/03/12 06:54:15;;;;;;;4.22;1.85;;;;;;;7.76;100.00;100129.25;5127821;27;20035;-68
2024/03/12 06:56:42;;;;;;;7.38;1.98;;;;;;;7.93;100.00;100124.22;5109911;28;20035;-68
2024/03/12 06:59:13;;;;;;;3.92;1.00;;;;;;;8.06;100.00;100128.28;5124728;27;20039;-68
2024/03/12 07:01:41;;;;;;;7.93;1.98;;;;;;;8.20;100.00;100133.91;5129503;27;20107;-68
2024/03/12 07:04:09;;;;;;;4.07;1.23;;;;;;;8.31;100.00;100135.53;5128754;27;20479;-68
2024/03/12 07:06:38;;;;;;;4.22;1.45;;;;;;;8.57;100.00;100134.03;5129487;27;20091;-68
2024/03/12 07:09:09;;;;;;;6.28;1.80;;;;;;;8.71;100.00;100134.53;5126796;27;20019;-68
2024/03/12 07:11:40;;;;;;;4.47;1.92;;;;;;;8.89;100.00;100136.28;5127341;27;20050;-69
2024/03/12 07:14:12;;;;;;;4.47;2.15;;;;;;;8.96;100.00;100139.13;5129677;27;20041;-68
2024/03/12 07:16:42;;;;;;;5.65;1.75;;;;;;;8.95;100.00;100148.72;5128510;27;20043;-68
2024/03/12 07:19:10;;;;;;;6.57;2.03;;;;;;;8.92;100.00;100140.38;5129774;27;20054;-68
2024/03/12 07:21:37;;;;;;;3.58;1.65;;;;;;;9.06;100.00;100142.50;5126656;27;20111;-68
2024/03/12 07:24:06;;;;;;;3.03;1.52;;;;;;;9.22;100.00;100149.69;5127732;27;20224;-68
2024/03/12 07:26:32;;;;;;;9.05;2.00;;;;;;;9.40;100.00;100150.56;5123641;27;20624;-69
2024/03/12 07:28:58;;;;;;;8.30;2.15;;;;;;;9.53;100.00;100145.00;5130135;27;20027;-69
2024/03/12 07:31:23;;;;;;;9.88;2.95;;;;;;;9.60;100.00;100154.69;5126456;27;20031;-68
2024/03/12 07:33:51;;;;;;;6.78;2.08;;;;;;;9.40;100.00;100154.97;5128469;27;20138;-69
2024/03/12 07:36:16;;;;;;;6.75;2.20;;;;;;;9.46;100.00;100160.38;5128734;27;20031;-68
2024/03/12 07:38:42;;;;;;;3.70;1.77;;;;;;;9.63;100.00;100159.59;5129041;27;20028;-68
2024/03/12 07:41:08;;;;;;;6.28;2.35;;;;;;;9.86;100.00;100159.19;5122858;27;20551;-68
2024/03/12 07:43:35;;;;;;;4.05;1.08;;;;;;;9.99;100.00;100164.84;5121814;27;20479;-68
2024/03/12 07:46:02;;;;;;;6.20;2.08;;;;;;;9.93;100.00;100162.81;5130504;27;20063;-68
2024/03/12 07:48:28;;;;;;;6.53;1.58;;;;;;;9.97;100.00;100169.38;5131842;27;20023;-69
2024/03/12 07:50:55;;;;;;;6.75;1.90;;;;;;;10.18;100.00;100166.50;5128455;27;20042;-68
2024/03/12 07:53:22;;;;;;;5.65;1.33;;;;;;;10.44;100.00;100167.38;5125427;27;20039;-68
2024/03/12 07:55:53;;;;;;;7.80;2.28;;;;;;;10.63;100.00;100182.03;5126291;27;20074;-69
2024/03/12 07:58:19;;;;;;;12.57;2.88;;;;;;;10.42;100.00;100179.72;5129493;27;20027;-68
2024/03/12 08:00:45;;;;;;;5.82;2.40;;;;;;;10.36;100.00;100177.75;5129322;27;20437;-68
2024/03/12 08:03:13;;;;;;;5.05;1.42;;;;;;;10.66;100.00;100179.13;5129895;27;20066;-68
2024/03/12 08:05:39;;;;;;;5.20;1.52;;;;;;;10.96;100.00;100175.22;5129973;27;20046;-68
2024/03/12 08:08:07;;;;;;;4.22;1.60;;;;;;;11.25;100.00;100183.56;5130047;27;20039;-68
2024/03/12 08:10:33;;;;;;;3.25;1.40;;;;;;;11.68;100.00;100176.53;5126550;27;20078;-68
2024/03/12 08:12:58;;;;;;;3.55;1.55;;;;;;;12.23;100.00;100179.47;5127021;27;20055;-68
2024/03/12 08:15:24;;;;;;;2.40;0.80;;;;;;;12.45;100.00;100182.38;5132713;27;20077;-68
2024/03/12 08:17:49;;;;;;;1.35;0.70;;;;;;;12.30;100.00;100184.81;5129794;27;20543;-68
2024/03/12 08:20:17;;;;;;;3.45;0.60;;;;;;;12.77;100.00;100187.59;5130054;27;20024;-68
2024/03/12 08:22:43;;;;;;;2.47;1.08;;;;;;;13.14;100.00;100192.28;5133143;27;20490;-68
2024/03/12 08:25:11;;;;;;;3.28;0.52;;;;;;;12.66;100.00;100185.34;5132406;27;20052;-69
2024/03/12 08:27:39;;;;;;;1.85;0.40;;;;;;;12.20;100.00;100190.22;5127627;27;20742;-68
2024/03/12 08:30:08;;;;;;;1.92;0.43;;;;;;;12.05;100.00;100191.84;5124033;27;20405;-69
2024/03/12 08:32:35;;;;;;;4.70;0.95;;;;;;;12.00;100.00;100196.72;5129128;27;20027;-68
2024/03/12 08:35:00;;;;;;;2.58;0.52;;;;;;;11.82;100.00;100193.41;5132847;27;20031;-68
2024/03/12 08:37:27;;;;;;;2.78;0.60;;;;;;;11.63;100.00;100197.91;5133367;27;20126;-68
2024/03/12 08:39:53;;;;;;;8.05;0.60;;;;;;;11.66;100.00;100206.38;5128214;27;20075;-67
2024/03/12 08:42:19;;;;;;;3.30;0.65;;;;;;;11.80;100.00;100211.03;5137017;27;20039;-67
2024/03/12 08:44:45;;;;;;;4.20;0.60;;;;;;;11.71;100.00;100209.34;5132741;27;20035;-67
2024/03/12 08:47:11;;;;;;;4.63;0.40;;;;;;;11.45;100.00;100210.19;5130609;27;20025;-67
2024/03/12 08:49:37;;;;;;;2.13;0.50;;;;;;;11.48;100.00;100216.91;5130653;27;20072;-67
2024/03/12 08:52:03;;;;;;;2.60;0.65;;;;;;;11.73;100.00;100221.25;5130396;27;20043;-67
2024/03/12 08:54:29;;;;;;;3.05;0.57;;;;;;;11.91;100.00;100213.34;5132076;27;20076;-67
2024/03/12 08:56:54;;;;;;;0.75;0.30;;;;;;;12.04;100.00;100215.50;5132623;27;20092;-67
2024/03/12 08:59:20;;;;;;;1.48;0.40;;;;;;;11.93;100.00;100222.63;5129980;27;20035;-67
2024/03/12 09:01:46;;;;;;;3.10;0.63;;;;;;;11.56;100.00;100219.56;5107870;27;20057;-68
2024/03/12 09:04:12;;;;;;;4.32;0.90;;;;;;;11.39;100.00;100213.44;5107617;27;20084;-67
2024/03/12 09:06:39;;;;;;;1.23;0.40;;;;;;;11.43;100.00;100221.75;5121054;27;20038;-67
2024/03/12 09:09:05;;;;;;;2.17;0.50;;;;;;;11.49;100.00;100224.56;5131572;27;20038;-67
2024/03/12 09:11:31;;;;;;;6.78;0.50;;;;;;;11.68;100.00;100222.69;5130045;27;20039;-67
2024/03/12 09:13:56;;;;;;;3.58;0.60;;;;;;;11.80;100.00;100226.69;5132398;27;20027;-67
2024/03/12 09:16:21;;;;;;;1.50;0.50;;;;;;;12.04;100.00;100228.53;5126556;27;20023;-67
2024/03/12 09:18:47;;;;;;;2.42;0.40;;;;;;;11.82;100.00;100225.53;5129098;27;20091;-67
2024/03/12 09:21:13;;;;;;;2.05;0.52;;;;;;;12.07;100.00;100223.81;5112740;27;20054;-66
2024/03/12 09:23:40;;;;;;;3.53;0.77;;;;;;;12.18;100.00;100223.53;5108863;28;20433;-67
2024/03/12 09:26:06;;;;;;;7.45;0.32;;;;;;;11.92;99.90;100234.06;5126960;27;20031;-66
2024/03/12 09:28:32;;;;;;;1.48;0.28;;;;;;;11.91;100.00;100227.19;5124801;27;20024;-66
2024/03/12 09:30:58;;;;;;;1.70;0.32;;;;;;;11.98;100.00;100219.56;5125531;27;20041;-66
2024/03/12 09:33:26;;;;;;;4.28;0.40;;;;;;;12.16;100.00;100227.28;5129527;27;21182;-66
2024/03/12 09:35:54;;;;;;;2.97;0.40;;;;;;;12.10;100.00;100226.13;5129609;27;20508;-66
2024/03/12 09:38:21;;;;;;;2.25;0.20;;;;;;;11.98;95.68;100229.19;5125199;27;20027;-67
2024/03/12 09:40:48;;;;;;;1.48;0.20;;;;;;;11.94;100.00;100233.91;5130267;27;20042;-67
2024/03/12 09:43:18;;;;;;;0.57;0.30;;;;;;;11.89;100.00;100231.75;5131022;27;20454;-67
2024/03/12 09:45:45;;;;;;;3.22;0.30;;;;;;;12.12;100.00;100233.78;5128762;27;20111;-67
2024/03/12 09:48:13;;;;;;;2.67;0.40;;;;;;;12.42;100.00;100224.53;5127341;27;20103;-67
2024/03/12 09:50:41;;;;;;;2.15;0.20;;;;;;;12.66;100.00;100234.19;5131702;27;20026;-67
2024/03/12 09:53:09;;;;;;;1.02;0.20;;;;;;;12.91;100.00;100238.41;5130920;27;20394;-66
2024/03/12 09:55:35;;;;;;;2.50;0.50;;;;;;;13.14;100.00;100241.16;5131338;27;20106;-67
2024/03/12 09:58:02;;;;;;;1.90;0.40;;;;;;;13.29;100.00;100239.50;5131306;27;20482;-67
2024/03/12 10:00:28;;;;;;;4.07;0.60;;;;;;;13.31;100.00;100240.16;5126041;27;20172;-67
2024/03/12 10:02:55;;;;;;;3.17;0.40;;;;;;;13.25;100.00;100251.28;5131651;27;20118;-66
2024/03/12 10:05:21;;;;;;;2.60;0.60;;;;;;;13.13;100.00;100245.56;5130737;27;20432;-66
2024/03/12 10:08:16;;;;;;;3.25;0.55;;;;;;;13.14;100.00;100257.66;5131276;27;20027;-67
2024/03/12 10:10:44;;;;;;;6.43;0.40;;;;;;;12.56;93.39;100245.59;5129416;27;20055;-67
2024/03/12 10:13:17;;;;;;;4.10;0.40;;;;;;;12.63;100.00;100253.63;5125846;27;20035;-66
2024/03/12 10:15:50;;;;;;;2.75;0.40;;;;;;;12.69;99.31;100252.16;5129117;27;20498;-66
2024/03/12 10:18:17;;;;;;;2.20;0.30;;;;;;;12.63;97.70;100249.22;5129112;27;20039;-66
2024/03/12 10:21:01;;;;;;;5.80;0.40;;;;;;;12.92;100.00;100263.56;5129434;27;20031;-66
2024/03/12 10:23:31;;;;;;;1.95;0.35;;;;;;;13.11;100.00;100258.00;5127457;27;20343;-67
2024/03/12 10:26:11;;;;;;;1.42;0.45;;;;;;;13.16;100.00;100257.53;5130869;27;20047;-66
2024/03/12 10:28:39;;;;;;;4.57;0.30;;;;;;;13.24;100.00;100260.13;5127830;27;20027;-66
2024/03/12 10:31:09;;;;;;;2.40;0.30;;;;;;;13.25;100.00;100265.19;5130441;27;20460;-66
2024/03/12 10:33:40;;;;;;;3.28;0.40;;;;;;;13.37;100.00;100263.03;5131038;27;20069;-66
2024/03/12 10:36:10;;;;;;;1.73;0.40;;;;;;;13.44;100.00;100258.78;5127950;27;20181;-66
2024/03/12 10:38:36;;;;;;;1.05;0.30;;;;;;;13.45;100.00;100260.41;5130848;27;20039;-66
2024/03/12 10:41:18;;;;;;;1.38;0.47;;;;;;;13.34;100.00;100255.53;5129706;27;20031;-66
2024/03/12 10:43:46;;;;;;;1.58;0.50;;;;;;;13.46;100.00;100253.38;5132484;27;20126;-66
2024/03/12 10:46:16;;;;;;;2.80;0.60;;;;;;;13.56;100.00;100262.66;5129642;27;20027;-66
2024/03/12 10:48:42;;;;;;;2.22;0.60;;;;;;;13.30;100.00;100262.06;5128160;27;20063;-66
2024/03/12 10:51:12;;;;;;;2.70;0.50;;;;;;;13.21;100.00;100261.28;5129678;27;20138;-66
2024/03/12 10:53:39;;;;;;;2.47;0.73;;;;;;;13.22;100.00;100257.69;5130569;27;20035;-66
2024/03/12 10:56:05;;;;;;;4.65;0.80;;;;;;;13.11;100.00;100258.00;5129925;27;20580;-70
2024/03/12 10:58:33;;;;;;;4.60;0.60;;;;;;;13.16;100.00;100252.31;5130773;27;20118;-70
2024/03/12 11:01:00;;;;;;;3.80;0.80;;;;;;;13.08;100.00;100257.50;5130365;27;20066;-68
2024/03/12 11:03:27;;;;;;;3.30;0.75;;;;;;;12.93;100.00;100252.13;5130186;27;20042;-66
2024/03/12 11:05:57;;;;;;;2.25;0.63;;;;;;;13.00;100.00;100258.34;5130759;27;20030;-66
2024/03/12 11:08:23;;;;;;;5.03;1.55;;;;;;;12.98;100.00;100264.72;5109984;27;20043;-66
2024/03/12 11:10:51;;;;;;;5.22;1.58;;;;;;;13.00;100.00;100260.13;5130496;27;20047;-66
2024/03/12 11:13:20;;;;;;;3.65;1.55;;;;;;;12.96;100.00;100254.41;5129691;27;20513;-66
2024/03/12 11:15:46;;;;;;;5.72;1.55;;;;;;;12.92;100.00;100253.94;5130493;27;20043;-66
2024/03/12 11:18:13;;;;;;;6.10;1.92;;;;;;;12.90;100.00;100255.06;5129738;27;20030;-66
2024/03/12 11:20:39;;;;;;;5.85;1.83;;;;;;;12.91;100.00;100251.47;5130603;27;20035;-66
2024/03/12 11:23:05;;;;;;;7.15;2.42;;;;;;;12.89;100.00;100253.44;5129906;27;20031;-66
2024/03/12 11:25:43;;;;;;;5.00;1.77;;;;;;;12.78;100.00;100248.53;5130585;27;20031;-65
2024/03/12 11:28:26;;;;;;;7.35;2.60;;;;;;;12.59;96.98;100247.91;5127701;27;20095;-66
2024/03/12 11:30:54;;;;;;;7.03;2.35;;;;;;;12.52;94.23;100240.88;5133326;27;20039;-65
2024/03/12 11:33:38;;;;;;;7.35;2.83;;;;;;;12.69;97.89;100233.84;5133755;27;20398;-66
2024/03/12 11:36:24;;;;;;;6.45;2.28;;;;;;;12.90;100.00;100234.16;5130947;27;20031;-66
2024/03/12 11:38:51;;;;;;;4.80;2.05;;;;;;;13.01;100.00;100233.81;5134336;27;20085;-65